sensor_id;sensor_type;location;lat;lon;timestamp;pressure;altitude;pressure_sealevel;temperature;humidity
59475;BME280;45288;51.136;16.928;2024-01-11T00:00:39;101517.84;;;-5.29;80.47
59475;BME280;45288;51.136;16.928;2024-01-11T00:03:19;101497.22;;;-5.38;80.76
59475;BME280;45288;51.136;16.928;2024-01-11T00:06:05;101508.56;;;-5.79;83.71
59475;BME280;45288;51.136;16.928;2024-01-11T00:08:44;101501.16;;;-5.62;83.32
59475;BME280;45288;51.136;16.928;2024-01-11T00:11:37;101493.84;;;-5.98;85.40
59475;BME280;45288;51.136;16.928;2024-01-11T00:14:29;101488.31;;;-6.23;87.60
59475;BME280;45288;51.136;16.928;2024-01-11T00:17:02;101490.72;;;-6.30;87.33
59475;BME280;45288;51.136;16.928;2024-01-11T00:19:54;101487.91;;;-6.46;88.02
59475;BME280;45288;51.136;16.928;2024-01-11T00:22:27;101486.25;;;-5.90;84.72
59475;BME280;45288;51.136;16.928;2024-01-11T00:25:19;101474.19;;;-5.99;84.69
59475;BME280;45288;51.136;16.928;2024-01-11T00:27:52;101471.44;;;-6.13;85.34
59475;BME280;45288;51.136;16.928;2024-01-11T00:30:44;101473.97;;;-6.13;85.16
59475;BME280;45288;51.136;16.928;2024-01-11T00:33:24;101467.25;;;-6.08;84.54
59475;BME280;45288;51.136;16.928;2024-01-11T00:36:10;101468.03;;;-6.12;85.07
59475;BME280;45288;51.136;16.928;2024-01-11T00:38:49;101468.13;;;-6.06;84.36
59475;BME280;45288;51.136;16.928;2024-01-11T00:41:34;101467.16;;;-6.12;83.75
59475;BME280;45288;51.136;16.928;2024-01-11T00:44:14;101457.16;;;-6.00;83.97
59475;BME280;45288;51.136;16.928;2024-01-11T00:46:59;101452.81;;;-6.06;84.42
59475;BME280;45288;51.136;16.928;2024-01-11T00:49:39;101457.06;;;-6.06;85.28
59475;BME280;45288;51.136;16.928;2024-01-11T00:52:25;101454.19;;;-6.26;86.85
59475;BME280;45288;51.136;16.928;2024-01-11T00:55:04;101451.88;;;-6.61;89.75
59475;BME280;45288;51.136;16.928;2024-01-11T00:57:51;101445.41;;;-6.41;88.89
59475;BME280;45288;51.136;16.928;2024-01-11T01:00:30;101447.16;;;-6.40;89.14
59475;BME280;45288;51.136;16.928;2024-01-11T01:03:16;101460.97;;;-6.77;90.42
59475;BME280;45288;51.136;16.928;2024-01-11T01:05:55;101464.06;;;-6.93;93.39
59475;BME280;45288;51.136;16.928;2024-01-11T01:08:41;101457.41;;;-6.37;90.52
59475;BME280;45288;51.136;16.928;2024-01-11T01:11:27;101451.13;;;-6.02;88.29
59475;BME280;45288;51.136;16.928;2024-01-11T01:14:19;101445.88;;;-6.13;86.83
59475;BME280;45288;51.136;16.928;2024-01-11T01:16:52;101439.31;;;-6.50;88.78
59475;BME280;45288;51.136;16.928;2024-01-11T01:19:45;101440.97;;;-6.51;90.36
59475;BME280;45288;51.136;16.928;2024-01-11T01:22:17;101440.59;;;-6.22;88.32
59475;BME280;45288;51.136;16.928;2024-01-11T01:25:11;101433.91;;;-6.16;87.78
59475;BME280;45288;51.136;16.928;2024-01-11T01:27:43;101425.78;;;-5.85;86.21
59475;BME280;45288;51.136;16.928;2024-01-11T01:30:36;101429.28;;;-6.38;88.78
59475;BME280;45288;51.136;16.928;2024-01-11T01:33:08;101430.25;;;-6.30;88.94
59475;BME280;45288;51.136;16.928;2024-01-11T01:36:01;101427.22;;;-6.06;88.01
59475;BME280;45288;51.136;16.928;2024-01-11T01:38:33;101431.81;;;-5.83;86.25
59475;BME280;45288;51.136;16.928;2024-01-11T01:41:26;101412.50;;;-5.60;83.90
59475;BME280;45288;51.136;16.928;2024-01-11T01:43:58;101408.63;;;-5.93;84.63
59475;BME280;45288;51.136;16.928;2024-01-11T01:46:51;101413.56;;;-6.08;85.29
59475;BME280;45288;51.136;16.928;2024-01-11T01:49:24;101404.75;;;-5.63;82.92
59475;BME280;45288;51.136;16.928;2024-01-11T01:52:17;101414.41;;;-5.43;80.29
59475;BME280;45288;51.136;16.928;2024-01-11T01:54:50;101412.13;;;-5.20;78.27
59475;BME280;45288;51.136;16.928;2024-01-11T01:57:43;101431.91;;;-5.06;77.52
59475;BME280;45288;51.136;16.928;2024-01-11T02:00:17;101454.47;;;-6.08;81.79
59475;BME280;45288;51.136;16.928;2024-01-11T02:03:12;101457.16;;;-6.99;88.68
59475;BME280;45288;51.136;16.928;2024-01-11T02:05:44;101444.47;;;-6.46;87.37
59475;BME280;45288;51.136;16.928;2024-01-11T02:08:38;101454.69;;;-6.46;86.82
59475;BME280;45288;51.136;16.928;2024-01-11T02:11:12;101449.91;;;-6.26;86.52
59475;BME280;45288;51.136;16.928;2024-01-11T02:14:06;101438.50;;;-5.90;85.34
59475;BME280;45288;51.136;16.928;2024-01-11T02:16:39;101432.59;;;-5.87;84.58
59475;BME280;45288;51.136;16.928;2024-01-11T02:19:32;101428.72;;;-5.59;83.54
59475;BME280;45288;51.136;16.928;2024-01-11T02:22:35;101433.72;;;-5.67;84.49
59475;BME280;45288;51.136;16.928;2024-01-11T02:25:28;101433.84;;;-5.56;83.20
59475;BME280;45288;51.136;16.928;2024-01-11T02:28:07;101439.59;;;-5.74;84.68
59475;BME280;45288;51.136;16.928;2024-01-11T02:31:00;101432.16;;;-6.18;86.18
59475;BME280;45288;51.136;16.928;2024-01-11T02:33:33;101420.03;;;-6.31;85.63
59475;BME280;45288;51.136;16.928;2024-01-11T02:36:26;101415.53;;;-5.88;82.26
59475;BME280;45288;51.136;16.928;2024-01-11T02:38:58;101414.94;;;-5.69;80.96
59475;BME280;45288;51.136;16.928;2024-01-11T02:41:52;101416.53;;;-5.76;80.83
59475;BME280;45288;51.136;16.928;2024-01-11T02:44:25;101400.47;;;-5.67;80.99
59475;BME280;45288;51.136;16.928;2024-01-11T02:47:19;101373.44;;;-5.46;80.30
59475;BME280;45288;51.136;16.928;2024-01-11T02:49:51;101373.88;;;-5.78;81.97
59475;BME280;45288;51.136;16.928;2024-01-11T02:52:44;101369.94;;;-6.19;85.01
59475;BME280;45288;51.136;16.928;2024-01-11T02:55:16;101355.25;;;-6.33;86.35
59475;BME280;45288;51.136;16.928;2024-01-11T02:58:10;101363.66;;;-6.42;85.63
59475;BME280;45288;51.136;16.928;2024-01-11T03:00:42;101357.56;;;-6.49;88.71
59475;BME280;45288;51.136;16.928;2024-01-11T03:03:35;101361.66;;;-6.59;91.81
59475;BME280;45288;51.136;16.928;2024-01-11T03:06:07;101370.47;;;-6.43;91.78
59475;BME280;45288;51.136;16.928;2024-01-11T03:09:00;101358.81;;;-6.22;90.14
59475;BME280;45288;51.136;16.928;2024-01-11T03:11:32;101346.91;;;-6.20;90.68
59475;BME280;45288;51.136;16.928;2024-01-11T03:14:25;101344.72;;;-5.94;89.31
59475;BME280;45288;51.136;16.928;2024-01-11T03:16:57;101352.78;;;-6.29;91.07
59475;BME280;45288;51.136;16.928;2024-01-11T03:19:50;101357.06;;;-6.26;90.39
59475;BME280;45288;51.136;16.928;2024-01-11T03:22:22;101347.06;;;-6.11;90.04
59475;BME280;45288;51.136;16.928;2024-01-11T03:25:15;101358.25;;;-6.03;89.57
59475;BME280;45288;51.136;16.928;2024-01-11T03:27:54;101380.47;;;-5.99;90.14
59475;BME280;45288;51.136;16.928;2024-01-11T03:30:40;101367.50;;;-6.11;89.74
59475;BME280;45288;51.136;16.928;2024-01-11T03:33:19;101372.22;;;-5.73;87.93
59475;BME280;45288;51.136;16.928;2024-01-11T03:36:11;101361.31;;;-5.61;86.48
59475;BME280;45288;51.136;16.928;2024-01-11T03:38:51;101356.56;;;-5.29;84.59
59475;BME280;45288;51.136;16.928;2024-01-11T03:41:37;101347.59;;;-5.66;85.58
59475;BME280;45288;51.136;16.928;2024-01-11T03:44:16;101350.84;;;-5.80;87.82
59475;BME280;45288;51.136;16.928;2024-01-11T03:47:02;101361.66;;;-6.02;88.03
59475;BME280;45288;51.136;16.928;2024-01-11T03:49:41;101371.31;;;-5.78;88.97
59475;BME280;45288;51.136;16.928;2024-01-11T03:52:27;101370.66;;;-5.63;87.50
59475;BME280;45288;51.136;16.928;2024-01-11T03:55:06;101380.00;;;-5.67;87.14
59475;BME280;45288;51.136;16.928;2024-01-11T03:57:52;101383.63;;;-6.15;88.72
59475;BME280;45288;51.136;16.928;2024-01-11T04:00:32;101393.25;;;-5.97;89.22
59475;BME280;45288;51.136;16.928;2024-01-11T04:03:18;101378.38;;;-5.59;86.28
59475;BME280;45288;51.136;16.928;2024-01-11T04:05:57;101370.84;;;-5.50;85.56
59475;BME280;45288;51.136;16.928;2024-01-11T04:08:43;101362.47;;;-5.35;84.76
59475;BME280;45288;51.136;16.928;2024-01-11T04:11:29;101364.16;;;-5.37;84.18
59475;BME280;45288;51.136;16.928;2024-01-11T04:14:22;101374.84;;;-4.91;82.92
59475;BME280;45288;51.136;16.928;2024-01-11T04:16:54;101358.59;;;-4.97;81.42
59475;BME280;45288;51.136;16.928;2024-01-11T04:19:47;101351.03;;;-4.85;80.98
59475;BME280;45288;51.136;16.928;2024-01-11T04:22:19;101358.47;;;-5.10;81.53
59475;BME280;45288;51.136;16.928;2024-01-11T04:25:12;101353.38;;;-5.04;80.72
59475;BME280;45288;51.136;16.928;2024-01-11T04:27:51;101347.38;;;-5.10;81.64
59475;BME280;45288;51.136;16.928;2024-01-11T04:30:37;101349.97;;;-5.04;81.43
59475;BME280;45288;51.136;16.928;2024-01-11T04:33:16;101357.69;;;-5.02;81.00
59475;BME280;45288;51.136;16.928;2024-01-11T04:36:09;101368.72;;;-5.07;81.27
59475;BME280;45288;51.136;16.928;2024-01-11T04:38:42;101369.13;;;-5.49;83.26
59475;BME280;45288;51.136;16.928;2024-01-11T04:41:36;101363.53;;;-5.16;81.88
59475;BME280;45288;51.136;16.928;2024-01-11T04:44:11;101347.41;;;-5.82;83.91
59475;BME280;45288;51.136;16.928;2024-01-11T04:47:04;101342.56;;;-5.59;84.50
59475;BME280;45288;51.136;16.928;2024-01-11T04:49:36;101338.31;;;-5.60;83.48
59475;BME280;45288;51.136;16.928;2024-01-11T04:52:29;101346.19;;;-5.41;82.76
59475;BME280;45288;51.136;16.928;2024-01-11T04:55:01;101355.53;;;-5.43;83.91
59475;BME280;45288;51.136;16.928;2024-01-11T04:57:55;101335.50;;;-5.80;85.95
59475;BME280;45288;51.136;16.928;2024-01-11T05:00:27;101325.25;;;-5.81;86.78
59475;BME280;45288;51.136;16.928;2024-01-11T05:03:28;101314.84;;;-5.98;88.48
59475;BME280;45288;51.136;16.928;2024-01-11T05:06:22;101315.16;;;-5.69;87.96
59475;BME280;45288;51.136;16.928;2024-01-11T05:08:54;101297.47;;;-5.51;87.41
59475;BME280;45288;51.136;16.928;2024-01-11T05:11:47;101283.34;;;-5.94;90.27
59475;BME280;45288;51.136;16.928;2024-01-11T05:14:40;101280.13;;;-5.78;90.53
59475;BME280;45288;51.136;16.928;2024-01-11T05:17:12;101281.28;;;-5.50;89.74
59475;BME280;45288;51.136;16.928;2024-01-11T05:20:06;101289.09;;;-5.36;88.24
59475;BME280;45288;51.136;16.928;2024-01-11T05:22:38;101298.00;;;-5.79;90.46
59475;BME280;45288;51.136;16.928;2024-01-11T05:25:31;101288.16;;;-5.42;89.06
59475;BME280;45288;51.136;16.928;2024-01-11T05:28:06;101282.38;;;-5.26;89.60
59475;BME280;45288;51.136;16.928;2024-01-11T05:30:59;101282.94;;;-5.55;90.05
59475;BME280;45288;51.136;16.928;2024-01-11T05:33:31;101279.81;;;-5.26;89.83
59475;BME280;45288;51.136;16.928;2024-01-11T05:36:24;101256.97;;;-4.98;87.97
59475;BME280;45288;51.136;16.928;2024-01-11T05:38:56;101250.22;;;-4.89;87.77
59475;BME280;45288;51.136;16.928;2024-01-11T05:41:49;101237.56;;;-4.69;86.70
59475;BME280;45288;51.136;16.928;2024-01-11T05:44:28;101239.28;;;-4.65;86.11
59475;BME280;45288;51.136;16.928;2024-01-11T05:47:14;101241.09;;;-4.47;84.42
59475;BME280;45288;51.136;16.928;2024-01-11T05:49:53;101246.75;;;-4.97;87.17
59475;BME280;45288;51.136;16.928;2024-01-11T05:52:39;101262.97;;;-4.96;88.61
59475;BME280;45288;51.136;16.928;2024-01-11T05:55:18;101266.50;;;-4.82;87.71
59475;BME280;45288;51.136;16.928;2024-01-11T05:58:05;101278.25;;;-5.07;90.77
59475;BME280;45288;51.136;16.928;2024-01-11T06:00:44;101268.06;;;-4.99;90.70
59475;BME280;45288;51.136;16.928;2024-01-11T06:03:30;101262.38;;;-4.62;87.36
59475;BME280;45288;51.136;16.928;2024-01-11T06:06:12;101271.75;;;-4.65;88.19
59475;BME280;45288;51.136;16.928;2024-01-11T06:08:58;101264.88;;;-4.72;89.14
59475;BME280;45288;51.136;16.928;2024-01-11T06:11:44;101246.28;;;-4.34;87.28
59475;BME280;45288;51.136;16.928;2024-01-11T06:14:37;101231.75;;;-4.43;87.71
59475;BME280;45288;51.136;16.928;2024-01-11T06:17:09;101221.41;;;-4.52;88.11
59475;BME280;45288;51.136;16.928;2024-01-11T06:20:02;101206.16;;;-4.32;86.76
59475;BME280;45288;51.136;16.928;2024-01-11T06:22:35;101200.19;;;-4.24;85.82
59475;BME280;45288;51.136;16.928;2024-01-11T06:25:28;101206.97;;;-4.36;85.65
59475;BME280;45288;51.136;16.928;2024-01-11T06:28:02;101213.00;;;-4.30;84.99
59475;BME280;45288;51.136;16.928;2024-01-11T06:30:55;101211.28;;;-4.26;85.55
59475;BME280;45288;51.136;16.928;2024-01-11T06:33:27;101218.06;;;-4.44;86.81
59475;BME280;45288;51.136;16.928;2024-01-11T06:36:22;101231.03;;;-4.05;84.59
59475;BME280;45288;51.136;16.928;2024-01-11T06:38:54;101238.72;;;-4.05;83.67
59475;BME280;45288;51.136;16.928;2024-01-11T06:41:47;101239.66;;;-3.94;83.34
59475;BME280;45288;51.136;16.928;2024-01-11T06:44:26;101245.72;;;-3.69;82.38
59475;BME280;45288;51.136;16.928;2024-01-11T06:47:12;101249.22;;;-3.01;81.77
59475;BME280;45288;51.136;16.928;2024-01-11T06:49:51;101250.06;;;-3.02;78.04
59475;BME280;45288;51.136;16.928;2024-01-11T06:52:38;101250.00;;;-3.43;78.57
59475;BME280;45288;51.136;16.928;2024-01-11T06:55:17;101238.91;;;-3.33;78.12
59475;BME280;45288;51.136;16.928;2024-01-11T06:58:03;101236.31;;;-3.64;79.16
59475;BME280;45288;51.136;16.928;2024-01-11T07:00:42;101228.56;;;-3.87;80.92
59475;BME280;45288;51.136;16.928;2024-01-11T07:03:28;101229.44;;;-3.76;80.57
59475;BME280;45288;51.136;16.928;2024-01-11T07:06:07;101214.88;;;-3.78;80.22
59475;BME280;45288;51.136;16.928;2024-01-11T07:08:53;101204.59;;;-3.87;80.72
59475;BME280;45288;51.136;16.928;2024-01-11T07:11:32;101196.94;;;-3.74;80.75
59475;BME280;45288;51.136;16.928;2024-01-11T07:14:18;101190.94;;;-3.65;80.49
59475;BME280;45288;51.136;16.928;2024-01-11T07:16:57;101192.66;;;-3.65;80.70
59475;BME280;45288;51.136;16.928;2024-01-11T07:19:43;101190.97;;;-3.49;79.77
59475;BME280;45288;51.136;16.928;2024-01-11T07:22:22;101195.28;;;-3.35;77.27
59475;BME280;45288;51.136;16.928;2024-01-11T07:25:15;101195.25;;;-3.44;76.72
59475;BME280;45288;51.136;16.928;2024-01-11T07:27:47;101173.00;;;-3.49;77.92
59475;BME280;45288;51.136;16.928;2024-01-11T07:30:40;101179.00;;;-3.49;78.41
59475;BME280;45288;51.136;16.928;2024-01-11T07:33:13;101159.34;;;-3.38;78.22
59475;BME280;45288;51.136;16.928;2024-01-11T07:36:06;101131.06;;;-3.44;79.03
59475;BME280;45288;51.136;16.928;2024-01-11T07:38:39;101136.19;;;-3.36;79.11
59475;BME280;45288;51.136;16.928;2024-01-11T07:41:32;101155.88;;;-3.34;78.54
59475;BME280;45288;51.136;16.928;2024-01-11T07:44:07;101157.63;;;-3.33;79.18
59475;BME280;45288;51.136;16.928;2024-01-11T07:47:00;101161.03;;;-3.34;78.82
59475;BME280;45288;51.136;16.928;2024-01-11T07:49:32;101159.31;;;-3.07;77.99
59475;BME280;45288;51.136;16.928;2024-01-11T07:52:25;101163.56;;;-3.00;76.55
59475;BME280;45288;51.136;16.928;2024-01-11T07:54:57;101166.16;;;-3.06;77.30
59475;BME280;45288;51.136;16.928;2024-01-11T07:57:53;101167.00;;;-3.05;77.53
59475;BME280;45288;51.136;16.928;2024-01-11T08:00:25;101158.41;;;-3.00;77.92
59475;BME280;45288;51.136;16.928;2024-01-11T08:03:18;101157.59;;;-3.14;78.85
59475;BME280;45288;51.136;16.928;2024-01-11T08:05:51;101155.00;;;-2.97;78.59
59475;BME280;45288;51.136;16.928;2024-01-11T08:08:44;101149.03;;;-2.99;79.45
59475;BME280;45288;51.136;16.928;2024-01-11T08:11:16;101157.50;;;-2.74;77.92
59475;BME280;45288;51.136;16.928;2024-01-11T08:14:09;101135.28;;;-2.91;78.85
59475;BME280;45288;51.136;16.928;2024-01-11T08:16:41;101143.84;;;-2.81;79.29
59475;BME280;45288;51.136;16.928;2024-01-11T08:19:35;101133.50;;;-2.64;79.79
59475;BME280;45288;51.136;16.928;2024-01-11T08:22:09;101161.78;;;-2.69;80.45
59475;BME280;45288;51.136;16.928;2024-01-11T08:25:02;101163.50;;;-2.63;81.42
59475;BME280;45288;51.136;16.928;2024-01-11T08:27:36;101161.75;;;-2.56;80.99
59475;BME280;45288;51.136;16.928;2024-01-11T08:30:29;101157.44;;;-2.48;80.63
59475;BME280;45288;51.136;16.928;2024-01-11T08:33:01;101146.28;;;-2.43;80.79
59475;BME280;45288;51.136;16.928;2024-01-11T08:35:54;101153.13;;;-2.46;81.35
59475;BME280;45288;51.136;16.928;2024-01-11T08:38:26;101158.25;;;-2.42;81.69
59475;BME280;45288;51.136;16.928;2024-01-11T08:41:19;101165.94;;;-2.35;82.16
59475;BME280;45288;51.136;16.928;2024-01-11T08:43:51;101147.13;;;-2.37;81.62
59475;BME280;45288;51.136;16.928;2024-01-11T08:46:44;101142.78;;;-2.35;81.97
59475;BME280;45288;51.136;16.928;2024-01-11T08:49:16;101142.72;;;-2.18;81.81
59475;BME280;45288;51.136;16.928;2024-01-11T08:52:09;101143.59;;;-2.18;80.82
59475;BME280;45288;51.136;16.928;2024-01-11T08:54:48;101160.75;;;-2.23;80.55
59475;BME280;45288;51.136;16.928;2024-01-11T08:57:35;101154.69;;;-2.08;81.46
59475;BME280;45288;51.136;16.928;2024-01-11T09:00:17;101169.25;;;-2.12;80.07
59475;BME280;45288;51.136;16.928;2024-01-11T09:03:03;101166.56;;;-1.89;79.05
59475;BME280;45288;51.136;16.928;2024-01-11T09:05:43;101163.94;;;-1.81;78.18
59475;BME280;45288;51.136;16.928;2024-01-11T09:08:29;101172.59;;;-1.91;77.33
59475;BME280;45288;51.136;16.928;2024-01-11T09:11:18;101166.63;;;-1.95;78.43
59475;BME280;45288;51.136;16.928;2024-01-11T09:14:11;101170.84;;;-1.86;76.59
59475;BME280;45288;51.136;16.928;2024-01-11T09:16:44;101170.84;;;-1.86;76.45
59475;BME280;45288;51.136;16.928;2024-01-11T09:19:37;101163.03;;;-1.69;75.88
59475;BME280;45288;51.136;16.928;2024-01-11T09:22:12;101159.56;;;-1.68;73.36
59475;BME280;45288;51.136;16.928;2024-01-11T09:25:05;101170.72;;;-1.65;73.17
59475;BME280;45288;51.136;16.928;2024-01-11T09:27:46;101168.00;;;-1.48;73.01
59475;BME280;45288;51.136;16.928;2024-01-11T09:30:32;101167.16;;;-1.50;72.48
59475;BME280;45288;51.136;16.928;2024-01-11T09:33:11;101176.53;;;-1.38;71.84
59475;BME280;45288;51.136;16.928;2024-01-11T09:35:57;101181.63;;;-1.32;71.17
59475;BME280;45288;51.136;16.928;2024-01-11T09:38:36;101180.75;;;-1.29;70.19
59475;BME280;45288;51.136;16.928;2024-01-11T09:41:22;101185.88;;;-1.29;69.25
59475;BME280;45288;51.136;16.928;2024-01-11T09:44:05;101173.09;;;-1.39;70.05
59475;BME280;45288;51.136;16.928;2024-01-11T09:46:51;101161.00;;;-1.32;69.95
59475;BME280;45288;51.136;16.928;2024-01-11T09:49:31;101168.69;;;-1.23;69.79
59475;BME280;45288;51.136;16.928;2024-01-11T09:52:20;101151.25;;;-0.95;69.07
59475;BME280;45288;51.136;16.928;2024-01-11T09:55:01;101153.06;;;-1.09;69.15
59475;BME280;45288;51.136;16.928;2024-01-11T09:57:48;101171.13;;;-1.07;69.06
59475;BME280;45288;51.136;16.928;2024-01-11T10:00:27;101166.81;;;-1.05;68.89
59475;BME280;45288;51.136;16.928;2024-01-11T10:03:14;101152.22;;;-1.10;69.06
59475;BME280;45288;51.136;16.928;2024-01-11T10:05:57;101129.91;;;-1.12;67.65
59475;BME280;45288;51.136;16.928;2024-01-11T10:08:43;101135.03;;;-1.09;67.04
59475;BME280;45288;51.136;16.928;2024-01-11T10:11:22;101148.53;;;-0.85;66.17
59475;BME280;45288;51.136;16.928;2024-01-11T10:14:15;101141.78;;;-0.94;65.86
59475;BME280;45288;51.136;16.928;2024-01-11T10:16:48;101137.47;;;-0.94;66.43
59475;BME280;45288;51.136;16.928;2024-01-11T10:19:41;101129.59;;;-0.80;67.04
59475;BME280;45288;51.136;16.928;2024-01-11T10:22:14;101129.47;;;-0.69;66.25
59475;BME280;45288;51.136;16.928;2024-01-11T10:25:14;101120.81;;;-0.63;66.49
59475;BME280;45288;51.136;16.928;2024-01-11T10:27:54;101112.38;;;-0.78;66.54
59475;BME280;45288;51.136;16.928;2024-01-11T10:30:40;101103.81;;;-0.83;65.31
59475;BME280;45288;51.136;16.928;2024-01-11T10:33:20;101113.25;;;-0.79;65.76
59475;BME280;45288;51.136;16.928;2024-01-11T10:36:06;101090.81;;;-0.71;65.62
59475;BME280;45288;51.136;16.928;2024-01-11T10:38:47;101098.56;;;-0.72;65.30
59475;BME280;45288;51.136;16.928;2024-01-11T10:41:40;101088.47;;;-0.92;65.56
59475;BME280;45288;51.136;16.928;2024-01-11T10:44:21;101076.22;;;-0.73;65.81
59475;BME280;45288;51.136;16.928;2024-01-11T10:47:09;101083.34;;;-0.94;65.29
59475;BME280;45288;51.136;16.928;2024-01-11T10:49:50;101074.56;;;-0.79;65.15
59475;BME280;45288;51.136;16.928;2024-01-11T10:52:43;101085.06;;;-0.94;65.16
59475;BME280;45288;51.136;16.928;2024-01-11T10:55:25;101076.44;;;-0.93;65.86
59475;BME280;45288;51.136;16.928;2024-01-11T10:58:12;101079.09;;;-1.01;64.67
59475;BME280;45288;51.136;16.928;2024-01-11T11:00:54;101075.41;;;-0.78;63.87
59475;BME280;45288;51.136;16.928;2024-01-11T11:03:41;101070.03;;;-0.58;63.12
59475;BME280;45288;51.136;16.928;2024-01-11T11:06:22;101076.78;;;-0.48;62.83
59475;BME280;45288;51.136;16.928;2024-01-11T11:09:10;101087.19;;;-0.57;62.65
59475;BME280;45288;51.136;16.928;2024-01-11T11:11:58;101077.94;;;-0.72;63.13
59475;BME280;45288;51.136;16.928;2024-01-11T11:14:51;101083.03;;;-0.66;63.82
59475;BME280;45288;51.136;16.928;2024-01-11T11:17:25;101097.66;;;-0.67;63.44
59475;BME280;45288;51.136;16.928;2024-01-11T11:20:18;101088.19;;;-0.68;63.76
59475;BME280;45288;51.136;16.928;2024-01-11T11:23:07;101088.03;;;-0.57;63.99
59475;BME280;45288;51.136;16.928;2024-01-11T11:26:00;101096.72;;;-0.59;62.79
59475;BME280;45288;51.136;16.928;2024-01-11T11:28:39;101088.22;;;-0.71;64.05
59475;BME280;45288;51.136;16.928;2024-01-11T11:31:46;101105.09;;;-0.43;64.25
59475;BME280;45288;51.136;16.928;2024-01-11T11:34:43;101097.25;;;-0.36;63.77
59475;BME280;45288;51.136;16.928;2024-01-11T11:37:31;101095.00;;;-0.62;63.70
59475;BME280;45288;51.136;16.928;2024-01-11T11:40:13;101083.25;;;-0.84;65.39
59475;BME280;45288;51.136;16.928;2024-01-11T11:43:01;101095.03;;;-0.63;65.17
59475;BME280;45288;51.136;16.928;2024-01-11T11:45:41;101106.75;;;-0.39;64.16
59475;BME280;45288;51.136;16.928;2024-01-11T11:51:17;101094.47;;;-0.20;63.20
59475;BME280;45288;51.136;16.928;2024-01-11T11:54:03;101083.31;;;-0.23;63.71
59475;BME280;45288;51.136;16.928;2024-01-11T11:56:42;101077.25;;;-0.22;63.24
59475;BME280;45288;51.136;16.928;2024-01-11T11:59:28;101077.25;;;-0.22;63.54
59475;BME280;45288;51.136;16.928;2024-01-11T12:02:12;101065.28;;;-0.26;64.28
59475;BME280;45288;51.136;16.928;2024-01-11T12:05:00;101055.75;;;-0.20;64.49
59475;BME280;45288;51.136;16.928;2024-01-11T12:07:39;101050.38;;;-0.05;64.13
59475;BME280;45288;51.136;16.928;2024-01-11T12:10:25;101056.16;;;0.08;63.50
59475;BME280;45288;51.136;16.928;2024-01-11T12:13:04;101048.16;;;-0.31;64.75
59475;BME280;45288;51.136;16.928;2024-01-11T12:15:51;101043.81;;;-0.29;64.94
59475;BME280;45288;51.136;16.928;2024-01-11T12:18:30;101034.97;;;-0.11;64.58
59475;BME280;45288;51.136;16.928;2024-01-11T12:21:16;101039.34;;;-0.16;64.65
59475;BME280;45288;51.136;16.928;2024-01-11T12:23:55;101047.81;;;-0.08;64.85
59475;BME280;45288;51.136;16.928;2024-01-11T12:26:41;101042.19;;;-0.36;65.34
59475;BME280;45288;51.136;16.928;2024-01-11T12:29:21;101044.66;;;-0.26;65.74
59475;BME280;45288;51.136;16.928;2024-01-11T12:32:07;101054.81;;;-0.16;65.67
59475;BME280;45288;51.136;16.928;2024-01-11T12:34:49;101047.91;;;-0.14;65.32
59475;BME280;45288;51.136;16.928;2024-01-11T12:37:35;101045.78;;;-0.45;67.05
59475;BME280;45288;51.136;16.928;2024-01-11T12:40:14;101050.84;;;-0.39;67.90
59475;BME280;45288;51.136;16.928;2024-01-11T12:43:00;101057.63;;;-0.32;67.98
59475;BME280;45288;51.136;16.928;2024-01-11T12:45:39;101039.59;;;-0.33;68.36
59475;BME280;45288;51.136;16.928;2024-01-11T12:48:25;101050.34;;;-0.66;69.45
59475;BME280;45288;51.136;16.928;2024-01-11T12:51:05;101061.59;;;-0.73;70.75
59475;BME280;45288;51.136;16.928;2024-01-11T12:53:52;101071.06;;;-0.73;70.83
59475;BME280;45288;51.136;16.928;2024-01-11T12:56:31;101067.16;;;-0.37;71.76
59475;BME280;45288;51.136;16.928;2024-01-11T12:59:17;101082.31;;;-0.12;71.58
59475;BME280;45288;51.136;16.928;2024-01-11T13:01:57;101065.41;;;-0.36;73.06
59475;BME280;45288;51.136;16.928;2024-01-11T13:04:44;101067.88;;;-0.26;73.59
59475;BME280;45288;51.136;16.928;2024-01-11T13:07:25;101061.50;;;-0.63;75.75
59475;BME280;45288;51.136;16.928;2024-01-11T13:10:12;101054.56;;;-0.58;76.68
59475;BME280;45288;51.136;16.928;2024-01-11T13:12:58;101047.34;;;-0.33;76.09
59475;BME280;45288;51.136;16.928;2024-01-11T13:15:53;101040.06;;;-0.07;74.71
59475;BME280;45288;51.136;16.928;2024-01-11T13:18:25;101047.19;;;-0.23;75.26
59475;BME280;45288;51.136;16.928;2024-01-11T13:21:18;101046.34;;;-0.26;75.72
59475;BME280;45288;51.136;16.928;2024-01-11T13:23:50;101044.94;;;-0.47;77.04
59475;BME280;45288;51.136;16.928;2024-01-11T13:26:43;101055.09;;;-0.36;77.25
59475;BME280;45288;51.136;16.928;2024-01-11T13:29:22;101042.91;;;-0.25;77.58
59475;BME280;45288;51.136;16.928;2024-01-11T13:32:08;101064.66;;;-0.43;80.02
59475;BME280;45288;51.136;16.928;2024-01-11T13:34:49;101052.41;;;-0.26;80.21
59475;BME280;45288;51.136;16.928;2024-01-11T13:37:35;101043.94;;;-0.35;80.88
59475;BME280;45288;51.136;16.928;2024-01-11T13:40:14;101039.28;;;-0.72;84.07
59475;BME280;45288;51.136;16.928;2024-01-11T13:43:00;101039.88;;;-0.53;83.36
59475;BME280;45288;51.136;16.928;2024-01-11T13:45:40;101041.66;;;-0.58;82.90
59475;BME280;45288;51.136;16.928;2024-01-11T13:48:26;101044.44;;;-0.72;83.64
59475;BME280;45288;51.136;16.928;2024-01-11T13:51:05;101053.66;;;-0.57;84.36
59475;BME280;45288;51.136;16.928;2024-01-11T13:53:54;101055.50;;;-0.64;89.85
59475;BME280;45288;51.136;16.928;2024-01-11T13:56:33;101049.13;;;-0.40;90.13
59475;BME280;45288;51.136;16.928;2024-01-11T13:59:19;101057.56;;;-0.27;90.49
59475;BME280;45288;51.136;16.928;2024-01-11T14:01:58;101049.41;;;-0.58;92.63
59475;BME280;45288;51.136;16.928;2024-01-11T14:04:44;101065.63;;;-0.50;94.40
59475;BME280;45288;51.136;16.928;2024-01-11T14:07:23;101076.84;;;-0.54;95.12